Time;durP1;ratioP1;P1;durP2;ratioP2;P2;SDS_P1;SDS_P2;PMS_P1;PMS_P2;Temp;Humidity;BMP_temperature;BMP_pressure;BME280_temperature;BME280_humidity;BME280_pressure;Samples;Min_cycle;Max_cycle;Signal;HPM_P1;HPM_P2
2021/01/03 00:01:14;;;;;;;59.10;21.00;;;0.70;99.90;;;;;;5065439;28;21159;-51
2021/01/03 00:03:41;;;;;;;70.37;22.40;;;0.70;99.90;;;;;;5069629;28;21009;-52
2021/01/03 00:06:12;;;;;;;61.97;21.23;;;0.60;99.90;;;;;;5069443;28;20472;-53
2021/01/03 00:08:39;;;;;;;65.47;21.03;;;0.50;99.90;;;;;;5069442;28;20503;-53
2021/01/03 00:11:05;;;;;;;64.10;22.00;;;0.40;99.90;;;;;;5069563;28;20448;-51
2021/01/03 00:13:31;;;;;;;62.07;22.60;;;0.40;99.90;;;;;;5069941;28;20441;-52
2021/01/03 00:15:59;;;;;;;64.60;20.60;;;0.50;99.90;;;;;;5069871;28;20462;-51
2021/01/03 00:18:26;;;;;;;57.47;19.90;;;0.50;99.90;;;;;;5061597;28;20462;-51
2021/01/03 00:20:52;;;;;;;74.80;22.63;;;0.50;99.90;;;;;;5068285;28;20449;-51
2021/01/03 00:23:22;;;;;;;66.17;22.53;;;0.50;99.90;;;;;;5068445;28;20463;-52
2021/01/03 00:25:49;;;;;;;61.17;21.57;;;0.40;99.90;;;;;;5069590;28;20880;-52
2021/01/03 00:28:15;;;;;;;67.10;22.07;;;0.40;99.90;;;;;;5069212;28;20446;-52
2021/01/03 00:30:43;;;;;;;65.37;22.07;;;0.40;99.90;;;;;;5069645;28;20465;-52
2021/01/03 00:33:10;;;;;;;67.33;21.50;;;0.40;99.90;;;;;;5068340;28;20484;-52
2021/01/03 00:35:38;;;;;;;61.50;21.67;;;0.40;99.90;;;;;;5069435;28;20479;-52
2021/01/03 00:38:07;;;;;;;61.63;19.93;;;0.30;99.90;;;;;;5068480;28;20498;-52
2021/01/03 00:40:35;;;;;;;86.63;23.97;;;0.30;99.90;;;;;;5068986;28;20838;-52
2021/01/03 00:43:02;;;;;;;67.80;23.30;;;0.40;99.90;;;;;;5068982;28;20453;-52
2021/01/03 00:45:29;;;;;;;58.03;21.10;;;0.40;99.90;;;;;;5069199;28;21013;-51
2021/01/03 00:47:57;;;;;;;66.80;20.00;;;0.40;99.90;;;;;;5065691;28;20511;-52
2021/01/03 00:50:25;;;;;;;59.90;20.90;;;0.40;99.90;;;;;;5068201;28;20967;-51
2021/01/03 00:52:52;;;;;;;67.60;22.50;;;0.40;99.90;;;;;;5060067;28;20458;-52
2021/01/03 00:55:19;;;;;;;61.13;19.90;;;0.40;99.90;;;;;;5068674;28;20498;-51
2021/01/03 00:57:45;;;;;;;66.37;22.90;;;0.50;99.90;;;;;;5069155;28;20489;-52
2021/01/03 01:00:16;;;;;;;57.83;19.87;;;0.70;99.90;;;;;;5068623;28;20971;-51
2021/01/03 01:02:42;;;;;;;63.77;21.13;;;0.70;99.90;;;;;;5069563;28;20450;-51
2021/01/03 01:05:10;;;;;;;61.60;20.87;;;0.70;99.90;;;;;;5068821;28;21025;-51
2021/01/03 01:07:38;;;;;;;51.13;19.43;;;0.80;99.90;;;;;;5068931;28;20446;-51
2021/01/03 01:10:06;;;;;;;56.07;19.83;;;0.80;99.90;;;;;;5068918;28;20523;-52
2021/01/03 01:12:34;;;;;;;54.87;19.87;;;0.80;99.90;;;;;;5066012;28;20947;-52
2021/01/03 01:15:01;;;;;;;49.00;19.37;;;0.80;99.90;;;;;;5069705;28;20463;-52
2021/01/03 01:17:27;;;;;;;51.00;18.10;;;0.90;99.90;;;;;;5072705;28;20489;-52
2021/01/03 01:19:54;;;;;;;59.80;24.48;;;0.90;99.90;;;;;;5070509;28;20438;-52
2021/01/03 01:22:20;;;;;;;59.93;23.03;;;0.90;99.90;;;;;;5072394;28;20199;-51
2021/01/03 01:24:48;;;;;;;51.43;18.20;;;0.90;99.90;;;;;;5068897;28;20454;-51
2021/01/03 01:27:14;;;;;;;56.73;19.20;;;0.70;99.90;;;;;;5072210;28;21230;-51
2021/01/03 01:29:41;;;;;;;57.20;20.00;;;0.70;99.90;;;;;;5071923;28;20482;-52
2021/01/03 01:32:07;;;;;;;58.13;20.90;;;0.50;99.90;;;;;;5072370;28;20453;-51
2021/01/03 01:34:34;;;;;;;55.50;19.70;;;0.50;99.90;;;;;;5070314;28;20457;-51
2021/01/03 01:37:00;;;;;;;66.20;22.60;;;0.50;99.90;;;;;;5066785;28;20453;-52
2021/01/03 01:39:27;;;;;;;53.87;20.03;;;0.70;99.90;;;;;;5069551;28;20823;-52
2021/01/03 01:41:54;;;;;;;63.43;21.63;;;0.60;99.90;;;;;;5073119;28;20451;-52
2021/01/03 01:44:21;;;;;;;60.30;20.43;;;0.60;99.90;;;;;;5072288;28;20825;-52
2021/01/03 01:46:53;;;;;;;56.33;20.73;;;0.60;99.90;;;;;;5074053;28;20465;-52
2021/01/03 01:49:20;;;;;;;57.60;19.80;;;0.70;99.90;;;;;;5077626;28;20976;-52
2021/01/03 01:51:50;;;;;;;43.57;17.60;;;0.90;99.90;;;;;;5070990;28;20456;-52
2021/01/03 01:54:21;;;;;;;52.47;19.10;;;1.00;99.90;;;;;;5072425;28;20799;-52
2021/01/03 01:56:55;;;;;;;49.57;18.33;;;1.00;99.90;;;;;;5071791;28;20487;-52
2021/01/03 01:59:32;;;;;;;59.60;19.10;;;1.10;99.90;;;;;;5071918;28;21144;-52
2021/01/03 02:02:06;;;;;;;47.40;19.50;;;1.20;99.90;;;;;;5072086;28;20484;-52
2021/01/03 02:04:34;;;;;;;51.60;19.00;;;1.10;99.90;;;;;;5071854;28;20480;-52
2021/01/03 02:07:07;;;;;;;59.03;18.87;;;1.10;99.90;;;;;;5072151;28;20812;-52
2021/01/03 02:09:46;;;;;;;52.20;19.03;;;1.20;99.90;;;;;;5069872;28;20454;-52
2021/01/03 02:12:20;;;;;;;50.33;18.70;;;1.20;99.90;;;;;;5071491;28;20457;-52
2021/01/03 02:14:48;;;;;;;53.57;20.00;;;1.20;99.90;;;;;;5071347;28;20449;-51
2021/01/03 02:17:14;;;;;;;51.23;18.57;;;1.30;99.90;;;;;;5072061;28;20490;-53
2021/01/03 02:19:41;;;;;;;55.97;20.80;;;1.30;99.90;;;;;;5071769;28;20458;-52
2021/01/03 02:22:20;;;;;;;51.40;18.83;;;1.10;99.90;;;;;;5069441;28;20963;-53
2021/01/03 02:24:54;;;;;;;50.77;19.40;;;1.10;99.90;;;;;;5072162;28;20481;-52
2021/01/03 02:27:27;;;;;;;50.67;18.30;;;1.10;99.90;;;;;;5070894;28;20445;-52
2021/01/03 02:29:56;;;;;;;44.40;17.70;;;1.00;99.90;;;;;;5071308;28;20449;-52
2021/01/03 02:32:24;;;;;;;48.30;18.67;;;1.10;99.90;;;;;;5071108;28;20500;-52
2021/01/03 02:34:52;;;;;;;58.93;19.80;;;1.20;99.90;;;;;;5070052;28;21008;-52
2021/01/03 02:37:23;;;;;;;50.77;18.23;;;1.20;99.90;;;;;;5071743;28;20482;-52
2021/01/03 02:39:57;;;;;;;47.60;18.20;;;1.20;99.90;;;;;;5063802;28;20454;-52
2021/01/03 02:42:27;;;;;;;56.70;20.27;;;1.30;99.90;;;;;;5071178;28;20872;-52
2021/01/03 02:44:54;;;;;;;52.07;19.07;;;1.40;99.90;;;;;;5063819;28;20471;-52
2021/01/03 02:47:24;;;;;;;49.87;19.10;;;1.40;99.90;;;;;;5070836;28;20983;-52
2021/01/03 02:49:50;;;;;;;48.13;18.90;;;1.40;99.90;;;;;;5071293;28;20451;-52
2021/01/03 02:52:22;;;;;;;43.30;17.43;;;1.40;99.90;;;;;;5070956;28;20447;-52
2021/01/03 02:54:48;;;;;;;45.37;17.67;;;1.30;99.90;;;;;;5071527;28;20457;-52
2021/01/03 02:57:16;;;;;;;51.57;19.40;;;1.20;99.90;;;;;;5071260;28;20486;-52
2021/01/03 02:59:42;;;;;;;51.97;20.03;;;1.40;99.90;;;;;;5071201;28;20508;-52
2021/01/03 03:02:09;;;;;;;47.20;18.33;;;1.40;99.90;;;;;;5062738;28;20447;-52
2021/01/03 03:04:35;;;;;;;50.97;20.33;;;1.40;99.90;;;;;;5065452;28;20493;-52
2021/01/03 03:07:02;;;;;;;50.63;18.70;;;1.40;99.90;;;;;;5070752;28;20879;-52
2021/01/03 03:09:28;;;;;;;56.77;19.40;;;1.20;99.90;;;;;;5071056;28;20454;-52
2021/01/03 03:11:55;;;;;;;56.13;18.50;;;1.00;99.90;;;;;;5070444;28;20447;-53
2021/01/03 03:14:22;;;;;;;57.27;18.70;;;1.00;99.90;;;;;;5070806;28;21036;-52
2021/01/03 03:16:55;;;;;;;48.20;18.90;;;1.10;99.90;;;;;;5070575;28;20486;-52
2021/01/03 03:19:21;;;;;;;51.30;18.97;;;1.20;99.90;;;;;;5070767;28;20473;-53
2021/01/03 03:21:49;;;;;;;49.87;18.73;;;1.20;99.90;;;;;;5068609;28;20446;-52
2021/01/03 03:24:16;;;;;;;46.43;18.03;;;1.00;99.90;;;;;;5069075;28;20457;-52
2021/01/03 03:26:42;;;;;;;46.50;19.50;;;0.90;99.90;;;;;;5070888;28;20462;-52
2021/01/03 03:29:09;;;;;;;57.57;19.20;;;0.90;99.90;;;;;;5070407;28;20971;-52
2021/01/03 03:31:36;;;;;;;56.43;19.47;;;0.90;99.90;;;;;;5062185;28;20457;-53
2021/01/03 03:34:03;;;;;;;50.90;19.50;;;1.00;99.90;;;;;;5069439;28;20447;-52
2021/01/03 03:36:29;;;;;;;57.93;19.27;;;1.00;99.90;;;;;;5070339;28;20863;-53
2021/01/03 03:38:55;;;;;;;49.10;18.77;;;1.00;99.90;;;;;;5070648;28;20800;-53
2021/01/03 03:41:24;;;;;;;52.90;18.93;;;1.20;99.90;;;;;;5070187;28;20950;-52
2021/01/03 03:43:50;;;;;;;54.57;18.40;;;1.30;99.90;;;;;;5069064;28;20446;-53
2021/01/03 03:46:17;;;;;;;50.53;16.90;;;1.40;99.90;;;;;;5070443;28;20501;-53
2021/01/03 03:48:45;;;;;;;48.27;18.60;;;1.40;99.90;;;;;;5066771;28;20454;-53
2021/01/03 03:51:15;;;;;;;45.70;18.20;;;1.50;99.90;;;;;;5069408;28;20484;-52
2021/01/03 03:53:42;;;;;;;46.83;16.83;;;1.60;99.90;;;;;;5067882;28;20451;-53
2021/01/03 03:56:09;;;;;;;42.47;17.43;;;1.60;99.90;;;;;;5069960;28;20478;-53
2021/01/03 03:58:36;;;;;;;47.43;18.27;;;1.60;99.90;;;;;;5069882;28;20915;-53
2021/01/03 04:01:03;;;;;;;44.23;17.30;;;1.70;99.90;;;;;;5070162;28;20496;-52
2021/01/03 04:03:30;;;;;;;44.47;16.60;;;1.80;99.90;;;;;;5069690;28;21010;-53
2021/01/03 04:05:57;;;;;;;49.00;17.80;;;1.70;99.90;;;;;;5070072;28;20467;-53
2021/01/03 04:08:24;;;;;;;44.57;17.77;;;1.80;99.90;;;;;;5070303;28;20492;-52
2021/01/03 04:10:51;;;;;;;45.00;17.70;;;1.70;99.90;;;;;;5069759;28;20451;-52
2021/01/03 04:13:17;;;;;;;40.23;17.43;;;1.90;99.90;;;;;;5062071;28;20447;-52
2021/01/03 04:15:44;;;;;;;50.10;18.10;;;2.00;99.90;;;;;;5069792;28;20475;-52
2021/01/03 04:18:11;;;;;;;43.90;17.20;;;1.90;99.90;;;;;;5069402;28;20482;-52
2021/01/03 04:20:38;;;;;;;42.20;17.10;;;1.90;99.90;;;;;;5070024;28;20455;-52
2021/01/03 04:23:06;;;;;;;45.60;18.17;;;1.90;99.90;;;;;;5069554;28;20959;-52
2021/01/03 04:25:33;;;;;;;43.70;16.60;;;1.80;99.90;;;;;;5070152;28;20551;-52
2021/01/03 04:28:00;;;;;;;46.97;17.73;;;1.80;99.90;;;;;;5069392;28;20447;-52
2021/01/03 04:30:27;;;;;;;41.53;16.50;;;1.90;99.90;;;;;;5069262;28;20447;-52
2021/01/03 04:32:54;;;;;;;44.50;16.33;;;1.90;99.90;;;;;;5069619;28;20447;-52
2021/01/03 04:35:21;;;;;;;47.13;16.00;;;1.90;99.90;;;;;;5070014;28;20463;-52
2021/01/03 04:37:51;;;;;;;43.40;17.70;;;1.90;99.90;;;;;;5069661;28;20486;-53
2021/01/03 04:40:21;;;;;;;46.63;18.03;;;1.90;99.90;;;;;;5062050;28;20838;-52
2021/01/03 04:42:53;;;;;;;42.40;18.07;;;1.70;99.90;;;;;;5069676;28;20454;-53
2021/01/03 04:45:26;;;;;;;44.73;17.60;;;1.70;99.90;;;;;;5069539;28;20481;-53
2021/01/03 04:47:56;;;;;;;44.17;16.90;;;1.80;99.90;;;;;;5073238;28;20526;-52
2021/01/03 04:50:39;;;;;;;46.57;17.63;;;1.90;99.90;;;;;;5073664;28;20473;-52
2021/01/03 04:53:16;;;;;;;50.00;18.13;;;1.70;99.90;;;;;;5073103;28;20856;-52
2021/01/03 04:55:48;;;;;;;36.10;16.43;;;1.70;99.90;;;;;;5099261;22;20489;-53
2021/01/03 04:58:31;;;;;;;45.00;16.20;;;1.80;99.90;;;;;;5092338;28;20476;-53
2021/01/03 05:01:17;;;;;;;43.13;16.20;;;1.90;99.90;;;;;;5093271;28;20844;-55
2021/01/03 05:04:21;;;;;;;40.80;14.70;;;1.90;99.90;;;;;;5093797;28;20446;-55
2021/01/03 05:06:51;;;;;;;40.60;16.10;;;1.90;99.90;;;;;;5074731;28;20520;-55
2021/01/03 05:09:17;;;;;;;39.57;16.57;;;1.90;99.90;;;;;;5072608;28;20470;-55
2021/01/03 05:11:55;;;;;;;38.93;16.80;;;1.90;99.90;;;;;;5078944;28;20456;-55
2021/01/03 05:14:30;;;;;;;38.50;16.47;;;2.00;99.90;;;;;;5092900;28;20450;-55
2021/01/03 05:16:58;;;;;;;45.10;16.93;;;1.80;99.90;;;;;;5082844;28;20489;-55
2021/01/03 05:19:24;;;;;;;41.03;16.60;;;1.60;99.90;;;;;;5083907;28;20458;-55
2021/01/03 05:21:52;;;;;;;44.80;16.90;;;1.70;99.90;;;;;;5092056;28;20453;-55
2021/01/03 05:24:22;;;;;;;39.20;17.60;;;1.70;99.90;;;;;;5092913;28;20446;-55
2021/01/03 05:26:50;;;;;;;38.90;15.87;;;1.90;99.90;;;;;;5074130;28;20466;-55
2021/01/03 05:29:24;;;;;;;42.40;17.10;;;1.90;99.90;;;;;;5073248;28;20458;-55
2021/01/03 05:31:57;;;;;;;41.37;17.40;;;2.00;99.90;;;;;;5073095;28;20458;-55
2021/01/03 05:34:33;;;;;;;48.87;18.50;;;1.80;99.90;;;;;;5075004;28;20446;-55
2021/01/03 05:37:08;;;;;;;47.57;17.77;;;1.70;99.90;;;;;;5072892;28;20565;-55
2021/01/03 05:39:36;;;;;;;40.43;16.90;;;1.80;99.90;;;;;;5075912;28;20450;-55
2021/01/03 05:42:18;;;;;;;46.17;17.47;;;1.90;99.90;;;;;;5075563;28;20656;-55
2021/01/03 05:44:53;;;;;;;40.57;16.93;;;2.00;99.90;;;;;;5069455;28;20450;-54
2021/01/03 05:47:25;;;;;;;45.67;17.50;;;1.90;99.90;;;;;;5077206;28;20463;-54
2021/01/03 05:50:26;;;;;;;41.30;17.03;;;1.90;99.90;;;;;;5072768;28;20484;-54
2021/01/03 05:52:55;;;;;;;39.30;16.20;;;2.00;99.90;;;;;;5077042;28;20977;-54
2021/01/03 05:55:23;;;;;;;40.33;16.90;;;1.90;99.90;;;;;;5076075;28;20497;-54
2021/01/03 06:01:18;;;;;;;55.53;18.40;;;1.80;99.90;;;;;;5068640;28;20416;-55
2021/01/03 06:03:58;;;;;;;43.63;17.90;;;1.70;99.90;;;;;;5075514;28;20456;-56
2021/01/03 06:06:47;;;;;;;40.43;17.33;;;1.70;99.90;;;;;;5080188;28;20536;-56
2021/01/03 06:09:16;;;;;;;44.00;15.97;;;1.70;99.90;;;;;;5084711;28;20869;-56
2021/01/03 06:11:57;;;;;;;50.97;18.30;;;1.80;99.90;;;;;;5086238;28;20461;-55
2021/01/03 06:14:25;;;;;;;47.67;17.57;;;1.90;99.90;;;;;;5088379;28;20500;-55
2021/01/03 06:16:57;;;;;;;42.80;17.30;;;1.90;99.90;;;;;;5072412;28;20466;-55
2021/01/03 06:19:34;;;;;;;45.83;16.80;;;2.00;99.90;;;;;;5072462;28;20447;-55
2021/01/03 06:22:10;;;;;;;41.40;17.10;;;1.90;99.90;;;;;;5076090;28;20453;-55
2021/01/03 06:24:41;;;;;;;48.03;18.27;;;2.00;99.90;;;;;;5075236;28;20828;-55
2021/01/03 06:27:13;;;;;;;46.50;18.70;;;1.90;99.90;;;;;;5072284;28;20470;-55
2021/01/03 06:29:47;;;;;;;44.10;16.90;;;1.90;99.90;;;;;;5080793;28;20508;-55
2021/01/03 06:32:48;;;;;;;43.63;17.70;;;1.80;99.90;;;;;;5085182;28;20455;-55
2021/01/03 06:35:27;;;;;;;39.67;17.17;;;1.90;99.90;;;;;;5066137;28;20450;-55
2021/01/03 06:38:05;;;;;;;40.30;17.33;;;1.70;99.90;;;;;;5090927;28;20481;-55
2021/01/03 06:40:34;;;;;;;47.13;17.63;;;1.80;99.90;;;;;;5081418;28;20504;-54
2021/01/03 06:43:30;;;;;;;44.17;17.97;;;1.70;99.90;;;;;;5076012;28;20442;-55
2021/01/03 06:46:37;;;;;;;42.87;15.93;;;1.70;99.90;;;;;;5091416;28;20515;-58
2021/01/03 06:49:23;;;;;;;47.40;18.90;;;1.70;99.90;;;;;;5079978;28;20832;-55
2021/01/03 06:52:22;;;;;;;46.00;17.67;;;1.60;99.90;;;;;;5084428;28;20445;-55
2021/01/03 06:55:23;;;;;;;42.63;16.90;;;1.60;99.90;;;;;;5073750;28;20447;-55
2021/01/03 06:58:13;;;;;;;47.17;18.00;;;1.60;99.90;;;;;;5079957;28;20998;-55
2021/01/03 07:00:43;;;;;;;48.43;17.90;;;1.60;99.90;;;;;;5073326;28;20454;-55
2021/01/03 07:03:15;;;;;;;44.17;16.70;;;1.50;99.90;;;;;;5071455;28;20454;-55
2021/01/03 07:05:55;;;;;;;41.40;17.63;;;1.50;99.90;;;;;;5069508;28;20470;-55
2021/01/03 07:08:25;;;;;;;43.30;17.40;;;1.60;99.90;;;;;;5064019;28;20800;-55
2021/01/03 07:10:52;;;;;;;46.33;17.87;;;1.50;99.90;;;;;;5070884;28;20512;-55
2021/01/03 07:13:39;;;;;;;50.63;17.13;;;1.40;99.90;;;;;;5081924;28;20449;-55
2021/01/03 07:16:10;;;;;;;49.13;17.50;;;1.40;99.90;;;;;;5071110;28;20475;-55
2021/01/03 07:18:48;;;;;;;46.60;18.53;;;1.50;99.90;;;;;;5076473;28;20503;-55
2021/01/03 07:21:36;;;;;;;43.80;17.50;;;1.40;99.90;;;;;;5088357;28;20464;-55
2021/01/03 07:24:30;;;;;;;48.00;18.03;;;1.50;99.90;;;;;;5073014;28;20477;-55
2021/01/03 07:27:23;;;;;;;47.30;16.70;;;1.50;99.90;;;;;;5090055;28;20477;-54
2021/01/03 07:30:00;;;;;;;42.40;16.40;;;1.50;99.90;;;;;;5067660;28;20480;-55
2021/01/03 07:32:43;;;;;;;44.17;16.70;;;1.50;99.90;;;;;;5074646;28;20445;-54
2021/01/03 07:35:21;;;;;;;36.03;15.80;;;1.60;99.90;;;;;;5070754;28;20451;-55
2021/01/03 07:37:51;;;;;;;43.50;17.00;;;1.70;99.90;;;;;;5071020;28;21014;-55
2021/01/03 07:40:20;;;;;;;42.03;18.20;;;1.80;99.90;;;;;;5080595;28;20461;-55
2021/01/03 07:43:01;;;;;;;41.50;16.70;;;1.80;99.90;;;;;;5071181;28;20479;-55
2021/01/03 07:45:43;;;;;;;38.40;16.07;;;1.70;99.90;;;;;;5072330;28;20511;-55
2021/01/03 07:48:31;;;;;;;46.93;17.83;;;1.80;99.90;;;;;;5069383;28;21156;-55
2021/01/03 07:50:58;;;;;;;40.07;17.37;;;1.80;99.90;;;;;;5070204;28;20450;-55
2021/01/03 07:53:33;;;;;;;41.10;16.97;;;1.80;99.90;;;;;;5069941;28;20451;-55
2021/01/03 07:56:18;;;;;;;41.40;15.93;;;1.90;99.90;;;;;;5069605;28;20503;-55
2021/01/03 07:58:49;;;;;;;39.73;16.07;;;1.90;99.90;;;;;;5067406;28;20478;-55
2021/01/03 08:01:16;;;;;;;39.40;17.13;;;2.00;99.90;;;;;;5070016;28;20868;-55
2021/01/03 08:03:43;;;;;;;40.30;16.43;;;2.00;99.90;;;;;;5077048;28;20449;-55
2021/01/03 08:06:11;;;;;;;37.17;16.27;;;2.00;99.90;;;;;;5066474;28;20524;-55
2021/01/03 08:08:40;;;;;;;40.43;16.40;;;2.10;99.90;;;;;;5069732;28;20455;-55
2021/01/03 08:11:25;;;;;;;38.53;16.07;;;2.10;99.90;;;;;;5079116;28;20450;-55
2021/01/03 08:13:57;;;;;;;42.70;17.00;;;2.10;99.90;;;;;;5088783;28;20442;-55
2021/01/03 08:16:25;;;;;;;40.83;16.57;;;2.10;99.90;;;;;;5083213;28;20852;-55
2021/01/03 08:19:03;;;;;;;39.30;16.77;;;2.10;99.90;;;;;;5065860;28;20479;-55
2021/01/03 08:21:31;;;;;;;37.07;16.40;;;2.20;99.90;;;;;;5073634;28;20450;-55
2021/01/03 08:24:12;;;;;;;36.60;16.40;;;2.20;99.90;;;;;;5078180;28;20443;-55
2021/01/03 08:26:43;;;;;;;42.23;18.73;;;2.20;99.90;;;;;;5076943;28;20484;-55
2021/01/03 08:29:20;;;;;;;39.57;16.83;;;2.30;99.90;;;;;;5083997;28;20480;-55
2021/01/03 08:31:50;;;;;;;47.77;18.40;;;2.30;99.90;;;;;;5094451;28;20448;-55
2021/01/03 08:34:22;;;;;;;39.70;16.30;;;2.30;99.90;;;;;;5094403;28;20453;-55
2021/01/03 08:36:48;;;;;;;42.60;17.10;;;2.30;99.90;;;;;;5078709;28;20525;-55
2021/01/03 08:39:16;;;;;;;40.90;16.73;;;2.30;99.90;;;;;;5084960;28;20450;-55
2021/01/03 08:41:55;;;;;;;36.47;17.10;;;2.20;99.90;;;;;;5096334;28;20446;-55
2021/01/03 08:44:26;;;;;;;39.20;16.20;;;2.30;99.90;;;;;;5081295;28;20485;-55
2021/01/03 08:47:05;;;;;;;39.17;16.37;;;2.20;99.90;;;;;;5096013;28;20852;-55
2021/01/03 08:49:32;;;;;;;47.10;17.10;;;2.20;99.90;;;;;;5096413;28;20457;-55
2021/01/03 08:52:13;;;;;;;43.07;17.77;;;2.10;99.90;;;;;;5095978;28;20453;-55
2021/01/03 08:54:40;;;;;;;38.17;16.83;;;2.20;99.90;;;;;;5079398;28;20483;-55
2021/01/03 08:57:07;;;;;;;42.50;17.50;;;2.20;99.90;;;;;;5081631;28;20536;-55
2021/01/03 08:59:34;;;;;;;39.90;16.90;;;2.20;99.90;;;;;;5067788;28;20849;-55
2021/01/03 09:02:01;;;;;;;36.60;15.90;;;2.20;99.90;;;;;;5063566;28;20459;-55
2021/01/03 09:04:27;;;;;;;39.80;16.47;;;2.30;99.90;;;;;;5076871;28;20454;-55
2021/01/03 09:06:59;;;;;;;37.60;16.03;;;2.10;99.90;;;;;;5079473;28;20920;-55
2021/01/03 09:09:29;;;;;;;42.87;16.27;;;2.10;99.90;;;;;;5096130;28;20514;-55
2021/01/03 09:11:59;;;;;;;37.33;16.27;;;2.10;99.90;;;;;;5079004;28;20488;-55
2021/01/03 09:14:30;;;;;;;40.30;15.60;;;2.20;99.90;;;;;;5076899;28;20800;-55
2021/01/03 09:17:07;;;;;;;45.40;18.00;;;2.30;99.90;;;;;;5089022;28;20836;-55
2021/01/03 09:19:48;;;;;;;43.50;18.40;;;2.30;99.90;;;;;;5077063;28;20446;-55
2021/01/03 09:22:26;;;;;;;39.93;17.50;;;2.30;99.90;;;;;;5078885;28;20987;-55
2021/01/03 09:25:03;;;;;;;49.20;19.30;;;2.10;99.90;;;;;;5092283;28;20441;-55
2021/01/03 09:27:33;;;;;;;44.80;18.00;;;2.10;99.90;;;;;;5085055;28;20492;-55
2021/01/03 09:30:09;;;;;;;43.03;18.53;;;2.10;99.90;;;;;;5075946;28;20442;-55
2021/01/03 09:32:37;;;;;;;43.20;19.93;;;2.10;99.90;;;;;;5072063;28;20450;-55
2021/01/03 09:35:17;;;;;;;44.13;18.17;;;2.10;99.90;;;;;;5073479;28;20451;-55
2021/01/03 09:38:05;;;;;;;41.03;17.30;;;2.20;99.90;;;;;;5073230;28;20474;-56
2021/01/03 09:40:41;;;;;;;46.27;17.63;;;2.30;99.90;;;;;;5074834;28;20974;-55
2021/01/03 09:43:26;;;;;;;47.07;18.03;;;2.10;99.90;;;;;;5072128;28;20542;-55
2021/01/03 09:46:17;;;;;;;47.13;16.47;;;2.20;99.90;;;;;;5066893;28;20489;-55
2021/01/03 09:48:43;;;;;;;42.03;16.17;;;2.30;99.90;;;;;;5062542;28;20450;-55
2021/01/03 09:51:31;;;;;;;46.77;16.70;;;2.20;99.90;;;;;;5072128;28;20443;-56
2021/01/03 09:54:10;;;;;;;37.17;15.57;;;2.30;99.90;;;;;;5072379;28;20542;-55
2021/01/03 09:56:38;;;;;;;39.80;15.73;;;2.30;99.90;;;;;;5068936;28;20490;-55
2021/01/03 09:59:12;;;;;;;39.90;16.03;;;2.40;99.90;;;;;;5060569;28;21001;-55
2021/01/03 10:01:39;;;;;;;42.20;16.80;;;2.50;99.90;;;;;;5070230;28;20463;-55
2021/01/03 10:04:22;;;;;;;37.83;16.57;;;2.40;99.90;;;;;;5068542;28;20456;-55
2021/01/03 10:06:51;;;;;;;41.33;16.47;;;2.50;99.90;;;;;;5065220;28;20527;-55
2021/01/03 10:09:31;;;;;;;37.50;16.93;;;2.50;99.90;;;;;;5072679;28;20442;-55
2021/01/03 10:11:58;;;;;;;38.93;16.07;;;2.40;99.90;;;;;;5072787;28;20443;-55
2021/01/03 10:14:31;;;;;;;38.23;17.13;;;2.30;99.90;;;;;;5072598;28;20454;-55
2021/01/03 10:17:13;;;;;;;42.20;15.30;;;2.40;99.90;;;;;;5072759;28;20471;-55
2021/01/03 10:19:43;;;;;;;40.20;17.00;;;2.50;99.90;;;;;;5072225;28;20533;-56
2021/01/03 10:22:27;;;;;;;42.83;17.60;;;2.60;99.90;;;;;;5072255;28;20454;-56
2021/01/03 10:24:57;;;;;;;43.53;16.47;;;2.70;99.90;;;;;;5072512;28;20450;-55
2021/01/03 10:27:24;;;;;;;43.50;16.37;;;2.70;99.90;;;;;;5072216;28;20979;-55
2021/01/03 10:29:53;;;;;;;41.87;15.90;;;2.70;99.90;;;;;;5072525;28;20820;-55
2021/01/03 10:32:21;;;;;;;43.70;16.27;;;2.60;99.90;;;;;;5072343;28;20834;-55
2021/01/03 10:34:48;;;;;;;37.03;14.90;;;2.40;99.90;;;;;;5072440;28;20461;-55
2021/01/03 10:37:15;;;;;;;37.27;16.20;;;2.50;99.90;;;;;;5071451;28;20471;-56
2021/01/03 10:39:42;;;;;;;36.43;15.63;;;2.60;99.90;;;;;;5072036;28;20443;-55
2021/01/03 10:42:11;;;;;;;37.00;16.47;;;2.50;99.90;;;;;;5069602;28;20469;-55
2021/01/03 10:44:38;;;;;;;37.10;15.80;;;2.60;99.90;;;;;;5068889;28;20443;-55
2021/01/03 10:47:06;;;;;;;38.20;15.97;;;2.50;99.90;;;;;;5072758;28;20482;-55
2021/01/03 10:49:32;;;;;;;39.97;16.43;;;2.50;99.90;;;;;;5068450;28;20463;-55
2021/01/03 10:51:59;;;;;;;40.40;16.77;;;2.40;99.90;;;;;;5070432;28;20447;-56
2021/01/03 10:54:27;;;;;;;41.03;15.73;;;2.30;99.90;;;;;;5070965;28;20454;-55
2021/01/03 10:56:56;;;;;;;37.20;15.37;;;2.30;99.90;;;;;;5071361;28;20479;-55
2021/01/03 10:59:23;;;;;;;34.60;14.87;;;2.40;99.90;;;;;;5070233;28;20517;-55
2021/01/03 11:01:49;;;;;;;38.00;15.63;;;2.50;99.90;;;;;;5071213;28;20450;-55
2021/01/03 11:04:18;;;;;;;36.10;14.83;;;2.50;99.90;;;;;;5070465;28;20458;-55
2021/01/03 11:06:47;;;;;;;43.50;16.57;;;2.50;99.90;;;;;;5066124;28;20540;-55
2021/01/03 11:09:16;;;;;;;70.13;27.77;;;2.60;99.90;;;;;;5062240;28;20459;-55
2021/01/03 11:11:42;;;;;;;45.67;19.60;;;2.40;99.90;;;;;;5062795;28;20458;-56
2021/01/03 11:14:09;;;;;;;45.10;18.63;;;2.40;99.90;;;;;;5063407;28;20496;-56
2021/01/03 11:16:38;;;;;;;40.83;16.67;;;2.30;99.90;;;;;;5063537;28;20486;-55
2021/01/03 11:19:10;;;;;;;42.17;16.00;;;2.30;99.90;;;;;;5070751;28;20539;-55
2021/01/03 11:21:38;;;;;;;38.37;16.20;;;2.30;99.90;;;;;;5071197;28;20548;-55
2021/01/03 11:24:08;;;;;;;35.50;15.17;;;2.30;99.90;;;;;;5070793;28;20451;-56
2021/01/03 11:26:37;;;;;;;39.37;16.30;;;2.30;99.90;;;;;;5070540;28;20859;-55
2021/01/03 11:29:08;;;;;;;39.87;16.10;;;2.40;99.90;;;;;;5070842;28;20458;-55
2021/01/03 11:31:37;;;;;;;38.70;15.30;;;2.20;99.90;;;;;;5065447;28;20455;-56
2021/01/03 11:34:05;;;;;;;32.00;14.07;;;2.20;99.90;;;;;;5069558;28;20462;-56
2021/01/03 11:36:32;;;;;;;31.43;13.50;;;2.40;99.90;;;;;;5070237;28;20471;-55
2021/01/03 11:39:00;;;;;;;43.27;18.57;;;2.20;99.90;;;;;;5069686;28;20899;-56
2021/01/03 11:41:27;;;;;;;32.63;13.27;;;2.30;99.90;;;;;;5069803;28;20461;-55
2021/01/03 11:43:53;;;;;;;52.63;20.50;;;2.30;99.90;;;;;;5069748;28;20462;-55
2021/01/03 11:46:20;;;;;;;39.40;17.57;;;2.20;99.90;;;;;;5068449;28;21203;-55
2021/01/03 11:48:47;;;;;;;36.33;14.13;;;2.30;99.90;;;;;;5068996;28;20829;-56
2021/01/03 11:51:14;;;;;;;31.60;14.53;;;2.20;99.90;;;;;;5068172;28;20459;-55
2021/01/03 11:53:41;;;;;;;42.13;15.90;;;2.00;99.90;;;;;;5068904;28;20968;-56
2021/01/03 11:56:08;;;;;;;35.03;15.83;;;2.00;99.90;;;;;;5069616;28;20488;-55
2021/01/03 11:58:35;;;;;;;44.27;19.87;;;2.10;99.90;;;;;;5066985;28;20547;-55
2021/01/03 12:01:02;;;;;;;39.70;17.93;;;2.20;99.90;;;;;;5069808;28;20952;-55
2021/01/03 12:03:29;;;;;;;61.67;28.57;;;2.30;99.90;;;;;;5069806;28;20451;-55
2021/01/03 12:05:55;;;;;;;33.53;15.33;;;2.30;99.90;;;;;;5069939;28;20466;-54
2021/01/03 12:08:22;;;;;;;37.50;14.10;;;2.20;99.90;;;;;;5070661;28;20450;-54
2021/01/03 12:10:48;;;;;;;39.67;18.73;;;2.10;99.90;;;;;;5071399;28;20459;-55
2021/01/03 12:13:16;;;;;;;33.67;14.97;;;2.10;99.90;;;;;;5069656;28;20848;-55
2021/01/03 12:15:43;;;;;;;38.33;15.30;;;2.10;99.90;;;;;;5077621;28;20477;-55
2021/01/03 12:18:09;;;;;;;33.43;14.60;;;2.30;99.90;;;;;;5070177;28;20489;-54
2021/01/03 12:20:36;;;;;;;36.70;17.00;;;2.40;99.90;;;;;;5069628;28;20458;-54
2021/01/03 12:23:05;;;;;;;38.17;15.87;;;2.40;99.90;;;;;;5069910;28;20450;-55
2021/01/03 12:25:31;;;;;;;34.80;15.83;;;2.30;99.90;;;;;;5069651;28;20450;-55
2021/01/03 12:27:58;;;;;;;39.60;17.23;;;2.40;99.90;;;;;;5069513;28;20531;-54
2021/01/03 12:30:26;;;;;;;36.83;15.50;;;2.40;99.90;;;;;;5073338;28;20888;-55
2021/01/03 12:32:52;;;;;;;66.90;27.70;;;2.50;99.90;;;;;;5069626;28;20451;-55
2021/01/03 12:35:19;;;;;;;38.00;17.73;;;2.60;99.90;;;;;;5071266;28;20533;-55
2021/01/03 12:37:46;;;;;;;31.50;14.70;;;2.50;99.90;;;;;;5069166;28;21025;-55
2021/01/03 12:40:13;;;;;;;40.30;15.90;;;2.40;99.90;;;;;;5072844;28;20500;-55
2021/01/03 12:42:40;;;;;;;30.03;13.00;;;2.40;99.90;;;;;;5073333;28;20454;-55
2021/01/03 12:45:08;;;;;;;29.70;14.13;;;2.30;99.90;;;;;;5069263;28;20446;-54
2021/01/03 12:47:36;;;;;;;31.77;14.00;;;2.40;99.90;;;;;;5069208;28;21022;-55
2021/01/03 12:50:03;;;;;;;30.13;14.20;;;2.50;99.90;;;;;;5070675;28;20451;-54
2021/01/03 12:52:29;;;;;;;29.17;16.67;;;2.70;99.90;;;;;;5075694;28;20458;-54
2021/01/03 12:54:56;;;;;;;33.77;14.37;;;2.90;99.90;;;;;;5069123;28;20504;-55
2021/01/03 12:57:23;;;;;;;31.20;14.60;;;3.10;99.90;;;;;;5069344;28;20995;-55
2021/01/03 12:59:49;;;;;;;36.93;15.00;;;3.00;99.90;;;;;;5069771;28;20825;-55